ěÝzenÝ letovÚho provozu ╚eskÚ republiky
Letiste: LKPR Aktualizace: 29.05.2023 16:30:41  UTC
 METAR LKPR 29.05. 16:30 ...
METAR LKPR 291630Z 01009KT 330V030 CAVOK 22/04 Q1019 NOSIG=
 TAF LKPR 29.05. 14:00 ...
TAF LKPR 291400Z 2915/3021 02006KT CAVOK      TEMPO 2923/3006 34006KT      PROB40 TEMPO 3012/3018 02012G24KT      PROB40 TEMPO 3009/3015 9999 SCT050=